sensor_id;sensor_type;location;lat;lon;timestamp;P1;durP1;ratioP1;P2;durP2;ratioP2
7575;SDS011;3829;50.798;4.358;2022-08-03T00:01:19;8.63;;;1.67;;
7575;SDS011;3829;50.798;4.358;2022-08-03T00:03:45;2.27;;;1.20;;
7575;SDS011;3829;50.798;4.358;2022-08-03T00:06:11;5.73;;;1.40;;
7575;SDS011;3829;50.798;4.358;2022-08-03T00:08:36;5.03;;;1.17;;
7575;SDS011;3829;50.798;4.358;2022-08-03T00:11:02;4.33;;;1.30;;
7575;SDS011;3829;50.798;4.358;2022-08-03T00:13:28;2.80;;;1.40;;
7575;SDS011;3829;50.798;4.358;2022-08-03T00:15:54;1.70;;;1.03;;
7575;SDS011;3829;50.798;4.358;2022-08-03T00:18:19;3.13;;;1.30;;
7575;SDS011;3829;50.798;4.358;2022-08-03T00:20:45;2.87;;;1.30;;
7575;SDS011;3829;50.798;4.358;2022-08-03T00:23:11;5.27;;;1.60;;
7575;SDS011;3829;50.798;4.358;2022-08-03T00:25:37;2.17;;;1.30;;
7575;SDS011;3829;50.798;4.358;2022-08-03T00:28:03;6.40;;;1.50;;
7575;SDS011;3829;50.798;4.358;2022-08-03T00:30:30;5.43;;;1.83;;
7575;SDS011;3829;50.798;4.358;2022-08-03T00:32:56;3.77;;;1.30;;
7575;SDS011;3829;50.798;4.358;2022-08-03T00:35:23;3.17;;;1.40;;
7575;SDS011;3829;50.798;4.358;2022-08-03T00:37:49;4.00;;;1.37;;
7575;SDS011;3829;50.798;4.358;2022-08-03T00:40:15;5.87;;;1.80;;
7575;SDS011;3829;50.798;4.358;2022-08-03T00:45:24;10.47;;;1.70;;
7575;SDS011;3829;50.798;4.358;2022-08-03T00:47:54;3.97;;;1.97;;
7575;SDS011;3829;50.798;4.358;2022-08-03T00:50:21;4.80;;;2.13;;
7575;SDS011;3829;50.798;4.358;2022-08-03T00:52:48;5.10;;;1.70;;
7575;SDS011;3829;50.798;4.358;2022-08-03T00:55:15;6.10;;;1.67;;
7575;SDS011;3829;50.798;4.358;2022-08-03T00:57:41;2.73;;;1.60;;
7575;SDS011;3829;50.798;4.358;2022-08-03T01:00:09;5.97;;;1.97;;
7575;SDS011;3829;50.798;4.358;2022-08-03T01:02:36;7.10;;;1.80;;
7575;SDS011;3829;50.798;4.358;2022-08-03T01:05:03;4.60;;;1.90;;
7575;SDS011;3829;50.798;4.358;2022-08-03T01:07:32;3.77;;;1.60;;
7575;SDS011;3829;50.798;4.358;2022-08-03T01:10:29;7.73;;;1.93;;
7575;SDS011;3829;50.798;4.358;2022-08-03T01:16:05;7.37;;;1.77;;
7575;SDS011;3829;50.798;4.358;2022-08-03T01:21:28;6.40;;;2.00;;
7575;SDS011;3829;50.798;4.358;2022-08-03T01:24:01;5.33;;;1.97;;
7575;SDS011;3829;50.798;4.358;2022-08-03T01:26:41;4.57;;;1.50;;
7575;SDS011;3829;50.798;4.358;2022-08-03T01:31:58;3.93;;;1.53;;
7575;SDS011;3829;50.798;4.358;2022-08-03T01:34:35;5.67;;;1.70;;
7575;SDS011;3829;50.798;4.358;2022-08-03T01:37:21;9.23;;;1.80;;
7575;SDS011;3829;50.798;4.358;2022-08-03T01:39:52;4.03;;;1.60;;
7575;SDS011;3829;50.798;4.358;2022-08-03T01:42:21;13.33;;;2.27;;
7575;SDS011;3829;50.798;4.358;2022-08-03T01:44:49;5.63;;;1.70;;
7575;SDS011;3829;50.798;4.358;2022-08-03T01:47:18;4.80;;;1.90;;
7575;SDS011;3829;50.798;4.358;2022-08-03T01:49:45;3.83;;;1.80;;
7575;SDS011;3829;50.798;4.358;2022-08-03T01:52:14;5.40;;;1.50;;
7575;SDS011;3829;50.798;4.358;2022-08-03T01:54:44;6.37;;;1.57;;
7575;SDS011;3829;50.798;4.358;2022-08-03T01:57:12;6.03;;;1.80;;
7575;SDS011;3829;50.798;4.358;2022-08-03T01:59:39;6.23;;;2.27;;
7575;SDS011;3829;50.798;4.358;2022-08-03T02:02:07;10.23;;;1.77;;
7575;SDS011;3829;50.798;4.358;2022-08-03T02:04:35;4.27;;;2.50;;
7575;SDS011;3829;50.798;4.358;2022-08-03T02:07:03;6.87;;;1.90;;
7575;SDS011;3829;50.798;4.358;2022-08-03T02:09:30;5.30;;;1.77;;
7575;SDS011;3829;50.798;4.358;2022-08-03T02:11:57;8.67;;;1.73;;
7575;SDS011;3829;50.798;4.358;2022-08-03T02:14:24;7.93;;;1.73;;
7575;SDS011;3829;50.798;4.358;2022-08-03T02:16:52;7.33;;;2.00;;
7575;SDS011;3829;50.798;4.358;2022-08-03T02:19:19;7.50;;;2.00;;
7575;SDS011;3829;50.798;4.358;2022-08-03T02:21:45;6.33;;;1.87;;
7575;SDS011;3829;50.798;4.358;2022-08-03T02:24:12;7.23;;;1.87;;
7575;SDS011;3829;50.798;4.358;2022-08-03T02:26:38;5.63;;;2.07;;
7575;SDS011;3829;50.798;4.358;2022-08-03T02:29:06;7.27;;;1.87;;
7575;SDS011;3829;50.798;4.358;2022-08-03T02:31:36;8.60;;;1.97;;
7575;SDS011;3829;50.798;4.358;2022-08-03T02:34:05;4.60;;;1.90;;
7575;SDS011;3829;50.798;4.358;2022-08-03T02:36:36;5.30;;;2.23;;
7575;SDS011;3829;50.798;4.358;2022-08-03T02:39:04;5.37;;;1.83;;
7575;SDS011;3829;50.798;4.358;2022-08-03T02:41:45;6.87;;;2.00;;
7575;SDS011;3829;50.798;4.358;2022-08-03T02:44:16;8.47;;;2.33;;
7575;SDS011;3829;50.798;4.358;2022-08-03T02:46:45;3.60;;;1.53;;
7575;SDS011;3829;50.798;4.358;2022-08-03T02:49:13;4.30;;;1.87;;
7575;SDS011;3829;50.798;4.358;2022-08-03T02:51:42;4.80;;;1.63;;
7575;SDS011;3829;50.798;4.358;2022-08-03T02:54:11;3.97;;;1.80;;
7575;SDS011;3829;50.798;4.358;2022-08-03T02:56:41;5.67;;;1.90;;
7575;SDS011;3829;50.798;4.358;2022-08-03T02:59:09;6.87;;;1.60;;
7575;SDS011;3829;50.798;4.358;2022-08-03T03:01:36;7.70;;;1.80;;
7575;SDS011;3829;50.798;4.358;2022-08-03T03:04:03;5.50;;;1.63;;
7575;SDS011;3829;50.798;4.358;2022-08-03T03:06:30;3.87;;;1.70;;
7575;SDS011;3829;50.798;4.358;2022-08-03T03:08:56;5.73;;;1.90;;
7575;SDS011;3829;50.798;4.358;2022-08-03T03:11:22;5.77;;;1.87;;
7575;SDS011;3829;50.798;4.358;2022-08-03T03:13:50;4.47;;;1.77;;
7575;SDS011;3829;50.798;4.358;2022-08-03T03:16:16;5.50;;;1.80;;
7575;SDS011;3829;50.798;4.358;2022-08-03T03:18:43;4.03;;;2.07;;
7575;SDS011;3829;50.798;4.358;2022-08-03T03:21:10;4.47;;;1.50;;
7575;SDS011;3829;50.798;4.358;2022-08-03T03:23:38;5.43;;;2.03;;
7575;SDS011;3829;50.798;4.358;2022-08-03T03:26:05;6.13;;;1.70;;
7575;SDS011;3829;50.798;4.358;2022-08-03T03:28:31;3.63;;;1.80;;
7575;SDS011;3829;50.798;4.358;2022-08-03T03:30:58;6.33;;;2.23;;
7575;SDS011;3829;50.798;4.358;2022-08-03T03:33:24;3.60;;;1.57;;
7575;SDS011;3829;50.798;4.358;2022-08-03T03:35:50;6.13;;;1.87;;
7575;SDS011;3829;50.798;4.358;2022-08-03T03:38:17;8.13;;;2.37;;
7575;SDS011;3829;50.798;4.358;2022-08-03T03:40:43;5.67;;;2.00;;
7575;SDS011;3829;50.798;4.358;2022-08-03T03:43:10;9.43;;;1.93;;
7575;SDS011;3829;50.798;4.358;2022-08-03T03:45:36;7.50;;;2.93;;
7575;SDS011;3829;50.798;4.358;2022-08-03T03:48:04;5.60;;;1.80;;
7575;SDS011;3829;50.798;4.358;2022-08-03T03:50:31;7.00;;;2.30;;
7575;SDS011;3829;50.798;4.358;2022-08-03T03:52:58;9.47;;;2.00;;
7575;SDS011;3829;50.798;4.358;2022-08-03T03:55:23;6.47;;;2.40;;
7575;SDS011;3829;50.798;4.358;2022-08-03T03:57:49;3.27;;;2.10;;
7575;SDS011;3829;50.798;4.358;2022-08-03T04:00:15;5.97;;;2.00;;
7575;SDS011;3829;50.798;4.358;2022-08-03T04:02:42;5.07;;;2.00;;
7575;SDS011;3829;50.798;4.358;2022-08-03T04:05:08;7.10;;;2.00;;
7575;SDS011;3829;50.798;4.358;2022-08-03T04:08:16;6.03;;;1.80;;
7575;SDS011;3829;50.798;4.358;2022-08-03T04:11:06;7.17;;;2.17;;
7575;SDS011;3829;50.798;4.358;2022-08-03T04:13:44;4.30;;;1.70;;
7575;SDS011;3829;50.798;4.358;2022-08-03T04:16:17;5.83;;;1.70;;
7575;SDS011;3829;50.798;4.358;2022-08-03T04:18:45;6.33;;;2.03;;
7575;SDS011;3829;50.798;4.358;2022-08-03T04:21:15;5.43;;;1.80;;
7575;SDS011;3829;50.798;4.358;2022-08-03T04:23:46;7.70;;;1.87;;
7575;SDS011;3829;50.798;4.358;2022-08-03T04:26:15;5.67;;;1.77;;
7575;SDS011;3829;50.798;4.358;2022-08-03T04:28:45;5.00;;;2.13;;
7575;SDS011;3829;50.798;4.358;2022-08-03T04:31:13;5.10;;;1.93;;
7575;SDS011;3829;50.798;4.358;2022-08-03T04:33:40;7.53;;;2.20;;
7575;SDS011;3829;50.798;4.358;2022-08-03T04:36:08;4.50;;;1.93;;
7575;SDS011;3829;50.798;4.358;2022-08-03T04:38:39;6.40;;;1.90;;
7575;SDS011;3829;50.798;4.358;2022-08-03T04:41:18;5.13;;;1.97;;
7575;SDS011;3829;50.798;4.358;2022-08-03T04:43:46;10.63;;;1.97;;
7575;SDS011;3829;50.798;4.358;2022-08-03T04:46:15;7.07;;;2.47;;
7575;SDS011;3829;50.798;4.358;2022-08-03T04:48:42;5.77;;;2.00;;
7575;SDS011;3829;50.798;4.358;2022-08-03T04:51:10;7.57;;;2.10;;
7575;SDS011;3829;50.798;4.358;2022-08-03T04:53:36;5.77;;;1.97;;
7575;SDS011;3829;50.798;4.358;2022-08-03T04:56:03;8.33;;;1.90;;
7575;SDS011;3829;50.798;4.358;2022-08-03T04:58:29;7.47;;;2.30;;
7575;SDS011;3829;50.798;4.358;2022-08-03T05:00:55;9.70;;;2.40;;
7575;SDS011;3829;50.798;4.358;2022-08-03T05:03:21;5.17;;;1.90;;
7575;SDS011;3829;50.798;4.358;2022-08-03T05:05:46;7.23;;;2.00;;
7575;SDS011;3829;50.798;4.358;2022-08-03T05:08:12;4.50;;;1.60;;
7575;SDS011;3829;50.798;4.358;2022-08-03T05:10:37;8.77;;;2.10;;
7575;SDS011;3829;50.798;4.358;2022-08-03T05:13:03;9.10;;;2.20;;
7575;SDS011;3829;50.798;4.358;2022-08-03T05:15:28;5.90;;;2.37;;
7575;SDS011;3829;50.798;4.358;2022-08-03T05:17:54;5.80;;;2.67;;
7575;SDS011;3829;50.798;4.358;2022-08-03T05:20:20;6.57;;;2.20;;
7575;SDS011;3829;50.798;4.358;2022-08-03T05:22:45;5.27;;;2.10;;
7575;SDS011;3829;50.798;4.358;2022-08-03T05:25:11;10.80;;;2.27;;
7575;SDS011;3829;50.798;4.358;2022-08-03T05:27:37;4.93;;;2.70;;
7575;SDS011;3829;50.798;4.358;2022-08-03T05:30:02;6.60;;;2.60;;
7575;SDS011;3829;50.798;4.358;2022-08-03T05:32:29;4.50;;;1.83;;
7575;SDS011;3829;50.798;4.358;2022-08-03T05:34:54;7.37;;;2.37;;
7575;SDS011;3829;50.798;4.358;2022-08-03T05:37:20;7.63;;;2.10;;
7575;SDS011;3829;50.798;4.358;2022-08-03T05:39:45;6.83;;;1.80;;
7575;SDS011;3829;50.798;4.358;2022-08-03T05:42:13;5.10;;;1.93;;
7575;SDS011;3829;50.798;4.358;2022-08-03T05:44:39;10.37;;;1.97;;
7575;SDS011;3829;50.798;4.358;2022-08-03T05:47:06;8.80;;;2.07;;
7575;SDS011;3829;50.798;4.358;2022-08-03T05:49:31;5.10;;;1.93;;
7575;SDS011;3829;50.798;4.358;2022-08-03T05:51:57;8.70;;;2.03;;
7575;SDS011;3829;50.798;4.358;2022-08-03T05:54:23;5.97;;;1.93;;
7575;SDS011;3829;50.798;4.358;2022-08-03T05:56:48;9.07;;;2.10;;
7575;SDS011;3829;50.798;4.358;2022-08-03T05:59:14;7.60;;;1.87;;
7575;SDS011;3829;50.798;4.358;2022-08-03T06:01:40;6.90;;;2.00;;
7575;SDS011;3829;50.798;4.358;2022-08-03T06:04:06;6.83;;;1.80;;
7575;SDS011;3829;50.798;4.358;2022-08-03T06:06:31;4.80;;;1.90;;
7575;SDS011;3829;50.798;4.358;2022-08-03T06:08:57;8.47;;;2.03;;
7575;SDS011;3829;50.798;4.358;2022-08-03T06:11:23;9.37;;;1.60;;
7575;SDS011;3829;50.798;4.358;2022-08-03T06:13:48;4.77;;;1.77;;
7575;SDS011;3829;50.798;4.358;2022-08-03T06:16:14;4.60;;;1.70;;
7575;SDS011;3829;50.798;4.358;2022-08-03T06:18:40;5.30;;;1.80;;
7575;SDS011;3829;50.798;4.358;2022-08-03T06:21:06;7.97;;;2.20;;
7575;SDS011;3829;50.798;4.358;2022-08-03T06:23:32;7.70;;;1.90;;
7575;SDS011;3829;50.798;4.358;2022-08-03T06:25:57;4.43;;;1.83;;
7575;SDS011;3829;50.798;4.358;2022-08-03T06:28:23;8.47;;;1.93;;
7575;SDS011;3829;50.798;4.358;2022-08-03T06:30:48;4.83;;;2.13;;
7575;SDS011;3829;50.798;4.358;2022-08-03T06:33:14;5.33;;;1.60;;
7575;SDS011;3829;50.798;4.358;2022-08-03T06:35:40;9.40;;;2.00;;
7575;SDS011;3829;50.798;4.358;2022-08-03T06:38:06;6.87;;;1.53;;
7575;SDS011;3829;50.798;4.358;2022-08-03T06:40:33;6.13;;;1.80;;
7575;SDS011;3829;50.798;4.358;2022-08-03T06:43:04;7.97;;;1.70;;
7575;SDS011;3829;50.798;4.358;2022-08-03T06:45:30;5.80;;;1.97;;
7575;SDS011;3829;50.798;4.358;2022-08-03T06:48:14;6.07;;;2.10;;
7575;SDS011;3829;50.798;4.358;2022-08-03T06:50:40;3.90;;;1.83;;
7575;SDS011;3829;50.798;4.358;2022-08-03T06:53:06;5.77;;;1.70;;
7575;SDS011;3829;50.798;4.358;2022-08-03T06:55:36;4.57;;;1.93;;
7575;SDS011;3829;50.798;4.358;2022-08-03T06:58:01;5.63;;;2.03;;
7575;SDS011;3829;50.798;4.358;2022-08-03T07:00:27;5.53;;;1.90;;
7575;SDS011;3829;50.798;4.358;2022-08-03T07:02:54;6.77;;;2.33;;
7575;SDS011;3829;50.798;4.358;2022-08-03T07:05:20;5.83;;;2.20;;
7575;SDS011;3829;50.798;4.358;2022-08-03T07:07:46;11.00;;;2.07;;
7575;SDS011;3829;50.798;4.358;2022-08-03T07:10:13;7.77;;;2.23;;
7575;SDS011;3829;50.798;4.358;2022-08-03T07:12:38;5.80;;;2.00;;
7575;SDS011;3829;50.798;4.358;2022-08-03T07:15:05;10.53;;;2.43;;
7575;SDS011;3829;50.798;4.358;2022-08-03T07:17:33;6.80;;;2.07;;
7575;SDS011;3829;50.798;4.358;2022-08-03T07:20:00;6.87;;;2.20;;
7575;SDS011;3829;50.798;4.358;2022-08-03T07:22:28;14.30;;;1.90;;
7575;SDS011;3829;50.798;4.358;2022-08-03T07:24:54;10.40;;;2.13;;
7575;SDS011;3829;50.798;4.358;2022-08-03T07:27:20;12.10;;;3.00;;
7575;SDS011;3829;50.798;4.358;2022-08-03T07:29:46;6.53;;;2.20;;
7575;SDS011;3829;50.798;4.358;2022-08-03T07:32:11;12.73;;;2.23;;
7575;SDS011;3829;50.798;4.358;2022-08-03T07:34:37;8.10;;;1.87;;
7575;SDS011;3829;50.798;4.358;2022-08-03T07:37:03;13.10;;;2.23;;
7575;SDS011;3829;50.798;4.358;2022-08-03T07:39:28;10.47;;;1.90;;
7575;SDS011;3829;50.798;4.358;2022-08-03T07:41:54;8.73;;;2.17;;
7575;SDS011;3829;50.798;4.358;2022-08-03T07:44:19;5.63;;;1.83;;
7575;SDS011;3829;50.798;4.358;2022-08-03T07:46:45;8.87;;;2.53;;
7575;SDS011;3829;50.798;4.358;2022-08-03T07:49:11;8.83;;;2.00;;
7575;SDS011;3829;50.798;4.358;2022-08-03T07:51:37;7.30;;;1.73;;
7575;SDS011;3829;50.798;4.358;2022-08-03T07:54:03;8.80;;;2.30;;
7575;SDS011;3829;50.798;4.358;2022-08-03T07:56:29;7.63;;;1.33;;
7575;SDS011;3829;50.798;4.358;2022-08-03T07:58:55;9.90;;;1.53;;
7575;SDS011;3829;50.798;4.358;2022-08-03T08:01:21;7.70;;;1.63;;
7575;SDS011;3829;50.798;4.358;2022-08-03T08:03:47;9.80;;;2.03;;
7575;SDS011;3829;50.798;4.358;2022-08-03T08:06:13;10.97;;;1.63;;
7575;SDS011;3829;50.798;4.358;2022-08-03T08:08:39;8.63;;;1.70;;
7575;SDS011;3829;50.798;4.358;2022-08-03T08:11:05;10.13;;;1.63;;
7575;SDS011;3829;50.798;4.358;2022-08-03T08:13:31;9.30;;;1.93;;
7575;SDS011;3829;50.798;4.358;2022-08-03T08:15:57;10.50;;;1.83;;
7575;SDS011;3829;50.798;4.358;2022-08-03T08:18:23;12.63;;;2.60;;
7575;SDS011;3829;50.798;4.358;2022-08-03T08:20:49;16.37;;;2.00;;
7575;SDS011;3829;50.798;4.358;2022-08-03T08:23:15;8.60;;;2.47;;
7575;SDS011;3829;50.798;4.358;2022-08-03T08:25:47;9.20;;;2.10;;
7575;SDS011;3829;50.798;4.358;2022-08-03T08:28:16;11.50;;;2.27;;
7575;SDS011;3829;50.798;4.358;2022-08-03T08:30:42;4.53;;;1.70;;
7575;SDS011;3829;50.798;4.358;2022-08-03T08:33:07;14.77;;;2.30;;
7575;SDS011;3829;50.798;4.358;2022-08-03T08:35:33;7.33;;;2.17;;
7575;SDS011;3829;50.798;4.358;2022-08-03T08:37:59;11.67;;;2.07;;
7575;SDS011;3829;50.798;4.358;2022-08-03T08:40:25;13.20;;;2.50;;
7575;SDS011;3829;50.798;4.358;2022-08-03T08:42:52;9.17;;;2.17;;
7575;SDS011;3829;50.798;4.358;2022-08-03T08:45:17;8.07;;;2.00;;
7575;SDS011;3829;50.798;4.358;2022-08-03T08:47:45;10.10;;;2.00;;
7575;SDS011;3829;50.798;4.358;2022-08-03T08:50:14;6.73;;;1.77;;
7575;SDS011;3829;50.798;4.358;2022-08-03T08:52:43;10.97;;;1.77;;
7575;SDS011;3829;50.798;4.358;2022-08-03T08:55:13;6.93;;;2.03;;
7575;SDS011;3829;50.798;4.358;2022-08-03T08:57:54;12.00;;;2.20;;
7575;SDS011;3829;50.798;4.358;2022-08-03T09:00:23;10.47;;;2.10;;
7575;SDS011;3829;50.798;4.358;2022-08-03T09:02:48;8.20;;;2.13;;
7575;SDS011;3829;50.798;4.358;2022-08-03T09:05:18;9.10;;;2.17;;
7575;SDS011;3829;50.798;4.358;2022-08-03T09:07:45;8.83;;;1.60;;
7575;SDS011;3829;50.798;4.358;2022-08-03T09:10:13;9.00;;;1.90;;
7575;SDS011;3829;50.798;4.358;2022-08-03T09:12:44;10.77;;;2.00;;
7575;SDS011;3829;50.798;4.358;2022-08-03T09:15:30;9.63;;;1.73;;
7575;SDS011;3829;50.798;4.358;2022-08-03T09:18:02;6.60;;;1.53;;
7575;SDS011;3829;50.798;4.358;2022-08-03T09:20:32;9.23;;;1.83;;
7575;SDS011;3829;50.798;4.358;2022-08-03T09:23:05;6.20;;;1.90;;
7575;SDS011;3829;50.798;4.358;2022-08-03T09:25:36;12.07;;;1.80;;
7575;SDS011;3829;50.798;4.358;2022-08-03T09:28:08;9.13;;;2.00;;
7575;SDS011;3829;50.798;4.358;2022-08-03T09:30:44;7.47;;;1.67;;
7575;SDS011;3829;50.798;4.358;2022-08-03T09:33:22;10.63;;;1.50;;
7575;SDS011;3829;50.798;4.358;2022-08-03T09:35:48;7.10;;;1.23;;
7575;SDS011;3829;50.798;4.358;2022-08-03T09:38:15;6.90;;;1.30;;
7575;SDS011;3829;50.798;4.358;2022-08-03T09:40:41;6.30;;;1.50;;
7575;SDS011;3829;50.798;4.358;2022-08-03T09:43:09;8.60;;;1.67;;
7575;SDS011;3829;50.798;4.358;2022-08-03T09:45:35;7.40;;;1.43;;
7575;SDS011;3829;50.798;4.358;2022-08-03T09:50:47;5.37;;;1.37;;
7575;SDS011;3829;50.798;4.358;2022-08-03T09:53:23;7.10;;;1.40;;
7575;SDS011;3829;50.798;4.358;2022-08-03T09:58:20;8.57;;;1.23;;
7575;SDS011;3829;50.798;4.358;2022-08-03T10:03:23;5.57;;;1.20;;
7575;SDS011;3829;50.798;4.358;2022-08-03T10:05:50;7.77;;;1.20;;
7575;SDS011;3829;50.798;4.358;2022-08-03T10:08:16;6.63;;;1.40;;
7575;SDS011;3829;50.798;4.358;2022-08-03T10:10:43;7.43;;;1.20;;
7575;SDS011;3829;50.798;4.358;2022-08-03T10:13:15;4.87;;;1.20;;
7575;SDS011;3829;50.798;4.358;2022-08-03T10:15:42;5.07;;;1.40;;
7575;SDS011;3829;50.798;4.358;2022-08-03T10:18:09;5.30;;;1.20;;
7575;SDS011;3829;50.798;4.358;2022-08-03T10:20:36;4.13;;;1.23;;
7575;SDS011;3829;50.798;4.358;2022-08-03T10:23:05;3.83;;;1.20;;
7575;SDS011;3829;50.798;4.358;2022-08-03T10:25:34;3.80;;;1.40;;
7575;SDS011;3829;50.798;4.358;2022-08-03T10:28:01;4.03;;;1.17;;
7575;SDS011;3829;50.798;4.358;2022-08-03T10:30:28;5.43;;;1.20;;
7575;SDS011;3829;50.798;4.358;2022-08-03T10:33:12;3.00;;;1.10;;
7575;SDS011;3829;50.798;4.358;2022-08-03T10:35:42;5.80;;;1.70;;
7575;SDS011;3829;50.798;4.358;2022-08-03T10:38:16;5.30;;;1.00;;
7575;SDS011;3829;50.798;4.358;2022-08-03T10:40:52;3.63;;;1.40;;
7575;SDS011;3829;50.798;4.358;2022-08-03T10:46:22;2.63;;;1.20;;
7575;SDS011;3829;50.798;4.358;2022-08-03T10:48:50;4.17;;;1.07;;
7575;SDS011;3829;50.798;4.358;2022-08-03T10:51:18;6.37;;;1.20;;
7575;SDS011;3829;50.798;4.358;2022-08-03T10:53:44;5.13;;;1.30;;
7575;SDS011;3829;50.798;4.358;2022-08-03T10:59:14;3.97;;;1.50;;
7575;SDS011;3829;50.798;4.358;2022-08-03T11:01:51;4.20;;;1.40;;
7575;SDS011;3829;50.798;4.358;2022-08-03T11:04:19;2.60;;;1.07;;
7575;SDS011;3829;50.798;4.358;2022-08-03T11:06:46;5.13;;;1.00;;
7575;SDS011;3829;50.798;4.358;2022-08-03T11:11:40;3.17;;;1.07;;
7575;SDS011;3829;50.798;4.358;2022-08-03T11:14:08;1.80;;;1.30;;
7575;SDS011;3829;50.798;4.358;2022-08-03T11:16:37;3.53;;;0.90;;
7575;SDS011;3829;50.798;4.358;2022-08-03T11:19:13;3.77;;;1.33;;
7575;SDS011;3829;50.798;4.358;2022-08-03T11:27:15;8.60;;;1.30;;
7575;SDS011;3829;50.798;4.358;2022-08-03T11:29:56;3.97;;;1.20;;
7575;SDS011;3829;50.798;4.358;2022-08-03T11:35:06;2.67;;;1.00;;
7575;SDS011;3829;50.798;4.358;2022-08-03T11:37:33;2.57;;;1.20;;
7575;SDS011;3829;50.798;4.358;2022-08-03T11:40:00;8.77;;;1.40;;
7575;SDS011;3829;50.798;4.358;2022-08-03T11:44:56;4.13;;;1.17;;
7575;SDS011;3829;50.798;4.358;2022-08-03T11:47:23;2.00;;;0.90;;
7575;SDS011;3829;50.798;4.358;2022-08-03T11:49:54;1.53;;;1.03;;
7575;SDS011;3829;50.798;4.358;2022-08-03T11:52:23;5.30;;;1.10;;
7575;SDS011;3829;50.798;4.358;2022-08-03T11:54:50;3.90;;;0.93;;
7575;SDS011;3829;50.798;4.358;2022-08-03T11:57:30;3.17;;;1.00;;
7575;SDS011;3829;50.798;4.358;2022-08-03T11:59:57;4.90;;;1.23;;
7575;SDS011;3829;50.798;4.358;2022-08-03T12:02:23;4.37;;;1.00;;
7575;SDS011;3829;50.798;4.358;2022-08-03T12:04:56;4.37;;;1.57;;
7575;SDS011;3829;50.798;4.358;2022-08-03T12:07:24;2.93;;;1.03;;
7575;SDS011;3829;50.798;4.358;2022-08-03T12:10:10;5.63;;;1.20;;
7575;SDS011;3829;50.798;4.358;2022-08-03T12:12:38;6.13;;;1.20;;
7575;SDS011;3829;50.798;4.358;2022-08-03T12:15:05;4.30;;;1.30;;
7575;SDS011;3829;50.798;4.358;2022-08-03T12:17:32;5.37;;;1.40;;
7575;SDS011;3829;50.798;4.358;2022-08-03T12:19:58;3.30;;;1.20;;
7575;SDS011;3829;50.798;4.358;2022-08-03T12:22:31;4.57;;;1.07;;
7575;SDS011;3829;50.798;4.358;2022-08-03T12:24:57;3.47;;;1.10;;
7575;SDS011;3829;50.798;4.358;2022-08-03T12:27:23;3.00;;;1.13;;
7575;SDS011;3829;50.798;4.358;2022-08-03T12:29:51;3.33;;;1.00;;
7575;SDS011;3829;50.798;4.358;2022-08-03T12:32:21;5.93;;;1.10;;
7575;SDS011;3829;50.798;4.358;2022-08-03T12:34:47;2.70;;;1.13;;
7575;SDS011;3829;50.798;4.358;2022-08-03T12:37:20;3.13;;;0.93;;
7575;SDS011;3829;50.798;4.358;2022-08-03T12:39:50;2.90;;;0.80;;
7575;SDS011;3829;50.798;4.358;2022-08-03T12:42:20;3.07;;;0.97;;
7575;SDS011;3829;50.798;4.358;2022-08-03T12:44:46;5.87;;;1.63;;
7575;SDS011;3829;50.798;4.358;2022-08-03T12:47:14;5.53;;;0.97;;
7575;SDS011;3829;50.798;4.358;2022-08-03T12:49:45;5.20;;;0.93;;
7575;SDS011;3829;50.798;4.358;2022-08-03T12:52:19;5.67;;;1.20;;
7575;SDS011;3829;50.798;4.358;2022-08-03T12:54:53;3.67;;;1.00;;
7575;SDS011;3829;50.798;4.358;2022-08-03T12:57:23;3.57;;;1.00;;
7575;SDS011;3829;50.798;4.358;2022-08-03T12:59:48;2.53;;;1.00;;
7575;SDS011;3829;50.798;4.358;2022-08-03T13:02:16;4.63;;;1.10;;
7575;SDS011;3829;50.798;4.358;2022-08-03T13:04:43;5.83;;;1.10;;
7575;SDS011;3829;50.798;4.358;2022-08-03T13:07:10;4.53;;;1.00;;
7575;SDS011;3829;50.798;4.358;2022-08-03T13:12:13;1.97;;;0.97;;
7575;SDS011;3829;50.798;4.358;2022-08-03T13:14:40;5.47;;;1.40;;
7575;SDS011;3829;50.798;4.358;2022-08-03T13:17:07;3.87;;;1.23;;
7575;SDS011;3829;50.798;4.358;2022-08-03T13:19:33;5.73;;;0.90;;
7575;SDS011;3829;50.798;4.358;2022-08-03T13:22:00;6.73;;;0.93;;
7575;SDS011;3829;50.798;4.358;2022-08-03T13:24:43;3.77;;;1.00;;
7575;SDS011;3829;50.798;4.358;2022-08-03T13:27:11;6.47;;;1.30;;
7575;SDS011;3829;50.798;4.358;2022-08-03T13:29:37;6.33;;;1.13;;
7575;SDS011;3829;50.798;4.358;2022-08-03T13:32:03;2.03;;;0.90;;
7575;SDS011;3829;50.798;4.358;2022-08-03T13:34:30;2.40;;;1.00;;
7575;SDS011;3829;50.798;4.358;2022-08-03T13:36:56;2.33;;;0.83;;
7575;SDS011;3829;50.798;4.358;2022-08-03T13:39:21;4.20;;;1.00;;
7575;SDS011;3829;50.798;4.358;2022-08-03T13:41:47;2.37;;;1.23;;
7575;SDS011;3829;50.798;4.358;2022-08-03T13:44:13;3.63;;;0.97;;
7575;SDS011;3829;50.798;4.358;2022-08-03T13:46:38;2.00;;;0.70;;
7575;SDS011;3829;50.798;4.358;2022-08-03T13:49:05;4.47;;;0.90;;
7575;SDS011;3829;50.798;4.358;2022-08-03T13:51:31;3.93;;;1.07;;
7575;SDS011;3829;50.798;4.358;2022-08-03T13:53:57;6.00;;;1.03;;
7575;SDS011;3829;50.798;4.358;2022-08-03T13:56:24;2.60;;;1.10;;
7575;SDS011;3829;50.798;4.358;2022-08-03T13:58:53;1.10;;;0.90;;
7575;SDS011;3829;50.798;4.358;2022-08-03T14:01:19;2.30;;;0.90;;
7575;SDS011;3829;50.798;4.358;2022-08-03T14:03:45;8.40;;;1.37;;
7575;SDS011;3829;50.798;4.358;2022-08-03T14:06:18;5.07;;;1.00;;
7575;SDS011;3829;50.798;4.358;2022-08-03T14:08:47;4.20;;;0.90;;
7575;SDS011;3829;50.798;4.358;2022-08-03T14:11:13;2.70;;;0.90;;
7575;SDS011;3829;50.798;4.358;2022-08-03T14:13:40;4.43;;;0.93;;
7575;SDS011;3829;50.798;4.358;2022-08-03T14:16:05;2.37;;;1.00;;
7575;SDS011;3829;50.798;4.358;2022-08-03T14:18:31;4.67;;;0.93;;
7575;SDS011;3829;50.798;4.358;2022-08-03T14:20:57;4.83;;;1.20;;
7575;SDS011;3829;50.798;4.358;2022-08-03T14:23:24;5.27;;;1.10;;
7575;SDS011;3829;50.798;4.358;2022-08-03T14:25:49;2.60;;;1.13;;
7575;SDS011;3829;50.798;4.358;2022-08-03T14:28:16;1.17;;;0.90;;
7575;SDS011;3829;50.798;4.358;2022-08-03T14:30:42;3.83;;;0.73;;
7575;SDS011;3829;50.798;4.358;2022-08-03T14:33:07;4.83;;;1.17;;
7575;SDS011;3829;50.798;4.358;2022-08-03T14:35:33;2.37;;;1.30;;
7575;SDS011;3829;50.798;4.358;2022-08-03T14:37:59;4.93;;;0.97;;
7575;SDS011;3829;50.798;4.358;2022-08-03T14:40:24;3.30;;;1.00;;
7575;SDS011;3829;50.798;4.358;2022-08-03T14:42:50;1.50;;;0.80;;
7575;SDS011;3829;50.798;4.358;2022-08-03T14:45:15;3.00;;;1.00;;
7575;SDS011;3829;50.798;4.358;2022-08-03T14:47:41;3.93;;;1.10;;
7575;SDS011;3829;50.798;4.358;2022-08-03T14:50:07;3.13;;;1.10;;
7575;SDS011;3829;50.798;4.358;2022-08-03T14:52:33;3.87;;;1.07;;
7575;SDS011;3829;50.798;4.358;2022-08-03T14:54:59;5.85;;;1.10;;
7575;SDS011;3829;50.798;4.358;2022-08-03T14:57:25;3.85;;;0.98;;
7575;SDS011;3829;50.798;4.358;2022-08-03T14:59:51;3.03;;;1.00;;
7575;SDS011;3829;50.798;4.358;2022-08-03T15:02:17;4.53;;;1.08;;
7575;SDS011;3829;50.798;4.358;2022-08-03T15:04:43;1.00;;;0.77;;
7575;SDS011;3829;50.798;4.358;2022-08-03T15:07:09;3.20;;;0.90;;
7575;SDS011;3829;50.798;4.358;2022-08-03T15:09:34;3.63;;;1.20;;
7575;SDS011;3829;50.798;4.358;2022-08-03T15:12:02;2.05;;;0.80;;
7575;SDS011;3829;50.798;4.358;2022-08-03T15:14:27;4.60;;;1.20;;
7575;SDS011;3829;50.798;4.358;2022-08-03T15:16:53;1.75;;;0.90;;
7575;SDS011;3829;50.798;4.358;2022-08-03T15:19:18;1.92;;;1.10;;
7575;SDS011;3829;50.798;4.358;2022-08-03T15:21:44;2.80;;;1.20;;
7575;SDS011;3829;50.798;4.358;2022-08-03T15:24:10;2.30;;;0.90;;
7575;SDS011;3829;50.798;4.358;2022-08-03T15:26:35;7.38;;;0.80;;
7575;SDS011;3829;50.798;4.358;2022-08-03T15:29:01;1.52;;;0.70;;
7575;SDS011;3829;50.798;4.358;2022-08-03T15:31:27;3.90;;;0.80;;
7575;SDS011;3829;50.798;4.358;2022-08-03T15:33:53;3.92;;;0.82;;
7575;SDS011;3829;50.798;4.358;2022-08-03T15:36:19;6.75;;;0.80;;
7575;SDS011;3829;50.798;4.358;2022-08-03T15:38:44;2.85;;;1.00;;
7575;SDS011;3829;50.798;4.358;2022-08-03T15:41:11;2.03;;;0.80;;
7575;SDS011;3829;50.798;4.358;2022-08-03T15:43:37;4.68;;;1.10;;
7575;SDS011;3829;50.798;4.358;2022-08-03T15:46:03;2.03;;;0.90;;
7575;SDS011;3829;50.798;4.358;2022-08-03T15:48:29;2.72;;;0.80;;
7575;SDS011;3829;50.798;4.358;2022-08-03T15:50:56;1.73;;;0.90;;
7575;SDS011;3829;50.798;4.358;2022-08-03T15:53:22;7.03;;;1.25;;
7575;SDS011;3829;50.798;4.358;2022-08-03T15:55:47;1.90;;;1.00;;
7575;SDS011;3829;50.798;4.358;2022-08-03T15:58:13;2.60;;;1.10;;
7575;SDS011;3829;50.798;4.358;2022-08-03T16:00:39;4.43;;;0.90;;